sensor_id;sensor_type;location;lat;lon;timestamp;pressure;altitude;pressure_sealevel;temperature;humidity
73936;BME280;62287;50.858;0.252;2023-03-13T00:00:12;99768.13;;;13.75;41.96
73936;BME280;62287;50.858;0.252;2023-03-13T00:00:44;99764.84;;;12.90;41.87
73936;BME280;62287;50.858;0.252;2023-03-13T00:01:17;99758.76;;;13.80;41.86
73936;BME280;62287;50.858;0.252;2023-03-13T00:01:49;99763.95;;;13.37;41.91
73936;BME280;62287;50.858;0.252;2023-03-13T00:02:20;99768.78;;;13.48;41.83
73936;BME280;62287;50.858;0.252;2023-03-13T00:02:51;99764.50;;;13.95;41.66
73936;BME280;62287;50.858;0.252;2023-03-13T00:03:22;99757.25;;;13.95;41.65
73936;BME280;62287;50.858;0.252;2023-03-13T00:03:53;99766.98;;;14.23;41.44
73936;BME280;62287;50.858;0.252;2023-03-13T00:04:24;99758.17;;;13.84;41.44
73936;BME280;62287;50.858;0.252;2023-03-13T00:04:55;99759.18;;;14.18;41.45
73936;BME280;62287;50.858;0.252;2023-03-13T00:05:26;99758.05;;;14.71;41.23
73936;BME280;62287;50.858;0.252;2023-03-13T00:05:58;99758.58;;;14.50;41.12
73936;BME280;62287;50.858;0.252;2023-03-13T00:06:30;99752.39;;;14.27;41.30
73936;BME280;62287;50.858;0.252;2023-03-13T00:07:01;99754.03;;;14.24;41.43
73936;BME280;62287;50.858;0.252;2023-03-13T00:07:32;99742.87;;;13.55;41.54
73936;BME280;62287;50.858;0.252;2023-03-13T00:08:03;99741.69;;;14.04;41.58
73936;BME280;62287;50.858;0.252;2023-03-13T00:08:35;99744.99;;;14.11;41.54
73936;BME280;62287;50.858;0.252;2023-03-13T00:09:07;99744.30;;;14.01;41.59
73936;BME280;62287;50.858;0.252;2023-03-13T00:09:39;99743.85;;;13.73;41.51
73936;BME280;62287;50.858;0.252;2023-03-13T00:10:10;99747.78;;;14.01;41.54
73936;BME280;62287;50.858;0.252;2023-03-13T00:10:41;99751.34;;;14.22;41.37
73936;BME280;62287;50.858;0.252;2023-03-13T00:11:13;99737.53;;;14.11;41.48
73936;BME280;62287;50.858;0.252;2023-03-13T00:11:45;99745.29;;;14.16;41.46
73936;BME280;62287;50.858;0.252;2023-03-13T00:12:16;99738.94;;;14.46;41.17
73936;BME280;62287;50.858;0.252;2023-03-13T00:12:47;99741.00;;;14.42;41.17
73936;BME280;62287;50.858;0.252;2023-03-13T00:13:18;99730.16;;;14.29;41.34
73936;BME280;62287;50.858;0.252;2023-03-13T00:13:53;99733.95;;;14.04;41.57
73936;BME280;62287;50.858;0.252;2023-03-13T00:14:24;99729.77;;;13.69;41.54
73936;BME280;62287;50.858;0.252;2023-03-13T00:14:55;99727.74;;;13.99;41.61
73936;BME280;62287;50.858;0.252;2023-03-13T00:15:26;99735.19;;;13.44;41.83
73936;BME280;62287;50.858;0.252;2023-03-13T00:16:01;99732.74;;;13.80;41.88
73936;BME280;62287;50.858;0.252;2023-03-13T00:16:32;99731.49;;;14.00;41.68
73936;BME280;62287;50.858;0.252;2023-03-13T00:17:03;99733.49;;;14.31;41.39
73936;BME280;62287;50.858;0.252;2023-03-13T00:17:34;99732.07;;;13.93;41.35
73936;BME280;62287;50.858;0.252;2023-03-13T00:18:05;99724.63;;;14.27;41.40
73936;BME280;62287;50.858;0.252;2023-03-13T00:18:36;99725.23;;;14.14;41.51
73936;BME280;62287;50.858;0.252;2023-03-13T00:19:08;99729.32;;;14.00;41.71
73936;BME280;62287;50.858;0.252;2023-03-13T00:19:39;99729.86;;;13.95;41.81
73936;BME280;62287;50.858;0.252;2023-03-13T00:20:11;99728.85;;;14.11;41.56
73936;BME280;62287;50.858;0.252;2023-03-13T00:20:42;99717.74;;;14.22;41.51
73936;BME280;62287;50.858;0.252;2023-03-13T00:21:13;99712.47;;;14.25;41.47
73936;BME280;62287;50.858;0.252;2023-03-13T00:21:44;99716.78;;;14.25;41.47
73936;BME280;62287;50.858;0.252;2023-03-13T00:22:15;99721.83;;;14.57;41.15
73936;BME280;62287;50.858;0.252;2023-03-13T00:22:46;99713.66;;;14.27;41.33
73936;BME280;62287;50.858;0.252;2023-03-13T00:23:17;99708.22;;;14.04;41.63
73936;BME280;62287;50.858;0.252;2023-03-13T00:23:48;99709.44;;;14.11;41.54
73936;BME280;62287;50.858;0.252;2023-03-13T00:24:19;99714.14;;;13.89;41.65
73936;BME280;62287;50.858;0.252;2023-03-13T00:24:50;99716.62;;;14.04;41.58
73936;BME280;62287;50.858;0.252;2023-03-13T00:25:21;99722.25;;;14.22;41.42
73936;BME280;62287;50.858;0.252;2023-03-13T00:25:56;99722.87;;;14.31;41.27
73936;BME280;62287;50.858;0.252;2023-03-13T00:26:27;99726.78;;;14.37;41.17
73936;BME280;62287;50.858;0.252;2023-03-13T00:26:59;99715.03;;;14.47;41.13
73936;BME280;62287;50.858;0.252;2023-03-13T00:27:32;99712.73;;;14.33;41.29
73936;BME280;62287;50.858;0.252;2023-03-13T00:28:04;99719.78;;;14.21;41.35
73936;BME280;62287;50.858;0.252;2023-03-13T00:28:36;99710.87;;;14.12;41.50
73936;BME280;62287;50.858;0.252;2023-03-13T00:29:07;99721.24;;;14.16;41.54
73936;BME280;62287;50.858;0.252;2023-03-13T00:29:38;99719.10;;;14.25;41.44
73936;BME280;62287;50.858;0.252;2023-03-13T00:30:10;99713.28;;;14.00;41.67
73936;BME280;62287;50.858;0.252;2023-03-13T00:30:41;99717.84;;;13.93;41.77
73936;BME280;62287;50.858;0.252;2023-03-13T00:31:14;99710.93;;;14.45;41.33
73936;BME280;62287;50.858;0.252;2023-03-13T00:31:45;99713.30;;;14.47;41.16
73936;BME280;62287;50.858;0.252;2023-03-13T00:32:16;99712.80;;;14.47;41.27
73936;BME280;62287;50.858;0.252;2023-03-13T00:32:47;99702.18;;;14.61;41.06
73936;BME280;62287;50.858;0.252;2023-03-13T00:33:18;99709.21;;;14.40;40.82
73936;BME280;62287;50.858;0.252;2023-03-13T00:33:50;99700.52;;;14.67;40.89
73936;BME280;62287;50.858;0.252;2023-03-13T00:34:21;99706.26;;;14.41;41.09
73936;BME280;62287;50.858;0.252;2023-03-13T00:34:52;99704.61;;;14.37;41.04
73936;BME280;62287;50.858;0.252;2023-03-13T00:35:23;99709.55;;;14.29;41.14
73936;BME280;62287;50.858;0.252;2023-03-13T00:35:57;99702.24;;;13.99;41.10
73936;BME280;62287;50.858;0.252;2023-03-13T00:36:29;99704.21;;;14.29;41.25
73936;BME280;62287;50.858;0.252;2023-03-13T00:37:01;99702.27;;;14.09;41.48
73936;BME280;62287;50.858;0.252;2023-03-13T00:37:32;99712.53;;;14.14;41.44
73936;BME280;62287;50.858;0.252;2023-03-13T00:38:03;99704.30;;;14.02;41.62
73936;BME280;62287;50.858;0.252;2023-03-13T00:38:34;99711.60;;;13.91;41.69
73936;BME280;62287;50.858;0.252;2023-03-13T00:39:05;99706.40;;;14.14;41.53
73936;BME280;62287;50.858;0.252;2023-03-13T00:39:36;99710.20;;;14.49;41.55
73936;BME280;62287;50.858;0.252;2023-03-13T00:40:09;99713.61;;;14.42;41.57
73936;BME280;62287;50.858;0.252;2023-03-13T00:40:40;99711.27;;;13.91;41.76
73936;BME280;62287;50.858;0.252;2023-03-13T00:41:12;99715.58;;;14.08;41.70
73936;BME280;62287;50.858;0.252;2023-03-13T00:41:44;99711.49;;;14.66;41.76
73936;BME280;62287;50.858;0.252;2023-03-13T00:42:14;99711.17;;;14.14;41.56
73936;BME280;62287;50.858;0.252;2023-03-13T00:42:45;99716.30;;;14.30;41.34
73936;BME280;62287;50.858;0.252;2023-03-13T00:43:16;99715.81;;;14.07;41.75
73936;BME280;62287;50.858;0.252;2023-03-13T00:43:48;99714.09;;;13.83;41.60
73936;BME280;62287;50.858;0.252;2023-03-13T00:44:19;99713.32;;;13.81;41.58
73936;BME280;62287;50.858;0.252;2023-03-13T00:44:50;99727.53;;;14.44;41.37
73936;BME280;62287;50.858;0.252;2023-03-13T00:45:21;99724.73;;;14.26;41.45
73936;BME280;62287;50.858;0.252;2023-03-13T00:45:52;99722.59;;;14.48;41.27
73936;BME280;62287;50.858;0.252;2023-03-13T00:46:25;99727.83;;;14.37;41.28
73936;BME280;62287;50.858;0.252;2023-03-13T00:46:56;99729.05;;;14.33;41.32
73936;BME280;62287;50.858;0.252;2023-03-13T00:47:27;99715.61;;;14.29;41.49
73936;BME280;62287;50.858;0.252;2023-03-13T00:47:58;99717.13;;;14.11;41.63
73936;BME280;62287;50.858;0.252;2023-03-13T00:48:29;99718.56;;;14.31;41.45
73936;BME280;62287;50.858;0.252;2023-03-13T00:49:00;99721.72;;;14.23;41.52
73936;BME280;62287;50.858;0.252;2023-03-13T00:49:31;99716.00;;;14.60;41.14
73936;BME280;62287;50.858;0.252;2023-03-13T00:50:02;99715.93;;;14.29;41.41
73936;BME280;62287;50.858;0.252;2023-03-13T00:50:33;99720.33;;;14.14;41.52
73936;BME280;62287;50.858;0.252;2023-03-13T00:51:05;99718.80;;;14.41;41.28
73936;BME280;62287;50.858;0.252;2023-03-13T00:51:36;99719.62;;;14.47;41.23
73936;BME280;62287;50.858;0.252;2023-03-13T00:52:07;99705.87;;;14.26;41.44
73936;BME280;62287;50.858;0.252;2023-03-13T00:52:38;99717.75;;;14.12;41.58
73936;BME280;62287;50.858;0.252;2023-03-13T00:53:09;99712.33;;;14.14;41.48
73936;BME280;62287;50.858;0.252;2023-03-13T00:53:40;99720.15;;;14.07;41.25
73936;BME280;62287;50.858;0.252;2023-03-13T00:54:11;99706.80;;;14.35;41.30
73936;BME280;62287;50.858;0.252;2023-03-13T00:54:42;99714.22;;;14.30;41.31
73936;BME280;62287;50.858;0.252;2023-03-13T00:55:13;99713.66;;;14.16;41.49
73936;BME280;62287;50.858;0.252;2023-03-13T00:55:53;99709.31;;;14.37;41.28
73936;BME280;62287;50.858;0.252;2023-03-13T00:56:25;99703.15;;;14.28;41.44
73936;BME280;62287;50.858;0.252;2023-03-13T00:56:56;99704.89;;;14.34;41.30
73936;BME280;62287;50.858;0.252;2023-03-13T00:57:27;99700.22;;;14.38;41.29
73936;BME280;62287;50.858;0.252;2023-03-13T00:57:58;99695.50;;;14.75;40.89
73936;BME280;62287;50.858;0.252;2023-03-13T00:58:30;99702.22;;;14.56;41.08
73936;BME280;62287;50.858;0.252;2023-03-13T00:59:02;99692.99;;;15.16;40.84
73936;BME280;62287;50.858;0.252;2023-03-13T00:59:33;99695.69;;;14.85;40.83
73936;BME280;62287;50.858;0.252;2023-03-13T01:00:05;99695.42;;;14.64;41.08
73936;BME280;62287;50.858;0.252;2023-03-13T01:00:36;99695.34;;;14.63;40.99
73936;BME280;62287;50.858;0.252;2023-03-13T01:01:08;99698.80;;;14.19;41.37
73936;BME280;62287;50.858;0.252;2023-03-13T01:01:40;99691.96;;;14.39;41.34
73936;BME280;62287;50.858;0.252;2023-03-13T01:02:11;99703.52;;;14.30;41.41
73936;BME280;62287;50.858;0.252;2023-03-13T01:02:42;99697.86;;;14.19;41.38
73936;BME280;62287;50.858;0.252;2023-03-13T01:03:13;99693.44;;;14.41;41.49
73936;BME280;62287;50.858;0.252;2023-03-13T01:03:47;99696.46;;;13.82;41.83
73936;BME280;62287;50.858;0.252;2023-03-13T01:04:18;99692.85;;;13.80;41.80
73936;BME280;62287;50.858;0.252;2023-03-13T01:04:49;99691.76;;;13.91;41.83
73936;BME280;62287;50.858;0.252;2023-03-13T01:05:20;99694.14;;;13.79;41.93
73936;BME280;62287;50.858;0.252;2023-03-13T01:05:55;99682.24;;;14.21;41.86
73936;BME280;62287;50.858;0.252;2023-03-13T01:06:28;99689.82;;;13.91;41.75
73936;BME280;62287;50.858;0.252;2023-03-13T01:06:59;99682.04;;;14.02;41.62
73936;BME280;62287;50.858;0.252;2023-03-13T01:07:30;99684.76;;;14.31;41.39
73936;BME280;62287;50.858;0.252;2023-03-13T01:08:01;99687.89;;;14.32;41.40
73936;BME280;62287;50.858;0.252;2023-03-13T01:08:32;99682.57;;;14.51;41.23
73936;BME280;62287;50.858;0.252;2023-03-13T01:09:04;99686.01;;;14.60;41.19
73936;BME280;62287;50.858;0.252;2023-03-13T01:09:35;99685.94;;;14.49;41.16
73936;BME280;62287;50.858;0.252;2023-03-13T01:10:07;99686.23;;;14.33;41.27
73936;BME280;62287;50.858;0.252;2023-03-13T01:10:38;99677.55;;;14.80;41.14
73936;BME280;62287;50.858;0.252;2023-03-13T01:11:11;99685.37;;;14.51;41.06
73936;BME280;62287;50.858;0.252;2023-03-13T01:11:43;99677.16;;;14.33;41.25
73936;BME280;62287;50.858;0.252;2023-03-13T01:12:14;99678.34;;;14.39;41.20
73936;BME280;62287;50.858;0.252;2023-03-13T01:12:45;99671.95;;;13.96;41.22
73936;BME280;62287;50.858;0.252;2023-03-13T01:13:16;99677.28;;;14.35;41.21
73936;BME280;62287;50.858;0.252;2023-03-13T01:13:48;99683.08;;;14.25;40.97
73936;BME280;62287;50.858;0.252;2023-03-13T01:14:19;99676.63;;;14.29;41.28
73936;BME280;62287;50.858;0.252;2023-03-13T01:14:50;99675.44;;;14.16;41.45
73936;BME280;62287;50.858;0.252;2023-03-13T01:15:21;99675.91;;;14.35;41.30
73936;BME280;62287;50.858;0.252;2023-03-13T01:15:52;99673.80;;;14.37;41.23
73936;BME280;62287;50.858;0.252;2023-03-13T01:16:24;99672.27;;;14.22;41.13
73936;BME280;62287;50.858;0.252;2023-03-13T01:16:56;99671.44;;;14.44;41.13
73936;BME280;62287;50.858;0.252;2023-03-13T01:17:27;99671.34;;;14.63;40.94
73936;BME280;62287;50.858;0.252;2023-03-13T01:17:57;99680.28;;;14.48;41.14
73936;BME280;62287;50.858;0.252;2023-03-13T01:18:29;99665.98;;;14.49;41.09
73936;BME280;62287;50.858;0.252;2023-03-13T01:19:01;99670.21;;;14.54;40.90
73936;BME280;62287;50.858;0.252;2023-03-13T01:19:33;99651.10;;;14.82;40.65
73936;BME280;62287;50.858;0.252;2023-03-13T01:20:05;99667.28;;;14.84;40.60
73936;BME280;62287;50.858;0.252;2023-03-13T01:20:37;99647.74;;;14.81;40.63
73936;BME280;62287;50.858;0.252;2023-03-13T01:21:09;99663.18;;;14.90;40.54
73936;BME280;62287;50.858;0.252;2023-03-13T01:21:41;99666.11;;;14.14;40.80
73936;BME280;62287;50.858;0.252;2023-03-13T01:22:12;99675.58;;;14.55;40.88
73936;BME280;62287;50.858;0.252;2023-03-13T01:22:43;99655.33;;;14.39;41.06
73936;BME280;62287;50.858;0.252;2023-03-13T01:23:14;99657.63;;;14.56;41.00
73936;BME280;62287;50.858;0.252;2023-03-13T01:23:45;99661.61;;;14.21;41.20
73936;BME280;62287;50.858;0.252;2023-03-13T01:24:16;99665.87;;;14.11;41.25
73936;BME280;62287;50.858;0.252;2023-03-13T01:24:47;99663.21;;;13.75;41.31
73936;BME280;62287;50.858;0.252;2023-03-13T01:25:18;99653.00;;;14.28;41.14
73936;BME280;62287;50.858;0.252;2023-03-13T01:25:49;99649.37;;;14.64;41.14
73936;BME280;62287;50.858;0.252;2023-03-13T01:26:21;99660.61;;;14.30;41.06
73936;BME280;62287;50.858;0.252;2023-03-13T01:26:52;99658.16;;;14.16;41.14
73936;BME280;62287;50.858;0.252;2023-03-13T01:27:23;99656.41;;;14.30;41.03
73936;BME280;62287;50.858;0.252;2023-03-13T01:27:54;99653.83;;;14.20;41.03
73936;BME280;62287;50.858;0.252;2023-03-13T01:28:25;99652.19;;;14.04;41.10
73936;BME280;62287;50.858;0.252;2023-03-13T01:28:56;99663.97;;;14.02;41.17
73936;BME280;62287;50.858;0.252;2023-03-13T01:29:27;99653.95;;;13.93;41.31
73936;BME280;62287;50.858;0.252;2023-03-13T01:29:58;99654.75;;;14.00;41.27
73936;BME280;62287;50.858;0.252;2023-03-13T01:30:29;99649.20;;;13.61;41.30
73936;BME280;62287;50.858;0.252;2023-03-13T01:31:10;99656.47;;;13.92;41.37
73936;BME280;62287;50.858;0.252;2023-03-13T01:31:41;99648.97;;;13.97;41.29
73936;BME280;62287;50.858;0.252;2023-03-13T01:32:11;99651.25;;;13.93;41.30
73936;BME280;62287;50.858;0.252;2023-03-13T01:32:42;99651.01;;;13.94;41.31
73936;BME280;62287;50.858;0.252;2023-03-13T01:33:14;99652.85;;;14.09;41.18
73936;BME280;62287;50.858;0.252;2023-03-13T01:33:46;99649.30;;;13.82;41.34
73936;BME280;62287;50.858;0.252;2023-03-13T01:34:17;99657.35;;;14.33;41.30
73936;BME280;62287;50.858;0.252;2023-03-13T01:34:48;99656.43;;;14.15;41.13
73936;BME280;62287;50.858;0.252;2023-03-13T01:35:19;99648.03;;;14.71;40.98
73936;BME280;62287;50.858;0.252;2023-03-13T01:35:50;99642.15;;;13.97;41.23
73936;BME280;62287;50.858;0.252;2023-03-13T01:36:21;99644.99;;;14.00;41.22
73936;BME280;62287;50.858;0.252;2023-03-13T01:36:52;99650.06;;;14.15;41.04
73936;BME280;62287;50.858;0.252;2023-03-13T01:37:23;99655.39;;;14.43;41.10
73936;BME280;62287;50.858;0.252;2023-03-13T01:37:54;99643.39;;;14.32;40.85
73936;BME280;62287;50.858;0.252;2023-03-13T01:38:25;99637.08;;;14.15;40.97
73936;BME280;62287;50.858;0.252;2023-03-13T01:38:59;99639.32;;;13.76;41.35
73936;BME280;62287;50.858;0.252;2023-03-13T01:39:30;99634.24;;;14.35;41.16
73936;BME280;62287;50.858;0.252;2023-03-13T01:40:01;99633.84;;;14.02;41.10
73936;BME280;62287;50.858;0.252;2023-03-13T01:40:38;99640.69;;;13.81;41.28
73936;BME280;62287;50.858;0.252;2023-03-13T01:41:11;99634.68;;;13.84;41.30
73936;BME280;62287;50.858;0.252;2023-03-13T01:41:42;99643.13;;;13.74;41.34
73936;BME280;62287;50.858;0.252;2023-03-13T01:42:13;99631.51;;;13.92;41.35
73936;BME280;62287;50.858;0.252;2023-03-13T01:42:52;99650.23;;;13.96;41.20
73936;BME280;62287;50.858;0.252;2023-03-13T01:43:25;99644.53;;;14.03;41.11
73936;BME280;62287;50.858;0.252;2023-03-13T01:43:56;99633.54;;;13.91;41.09
73936;BME280;62287;50.858;0.252;2023-03-13T01:44:28;99638.45;;;14.13;41.31
73936;BME280;62287;50.858;0.252;2023-03-13T01:44:58;99641.80;;;13.87;41.24
73936;BME280;62287;50.858;0.252;2023-03-13T01:46:08;99630.20;;;13.87;41.24
73936;BME280;62287;50.858;0.252;2023-03-13T01:46:40;99640.55;;;13.80;41.22
73936;BME280;62287;50.858;0.252;2023-03-13T01:47:11;99632.69;;;14.13;41.04
73936;BME280;62287;50.858;0.252;2023-03-13T01:47:42;99635.85;;;13.96;41.06
73936;BME280;62287;50.858;0.252;2023-03-13T01:48:13;99630.86;;;14.03;41.01
73936;BME280;62287;50.858;0.252;2023-03-13T01:48:48;99632.95;;;14.01;41.03
73936;BME280;62287;50.858;0.252;2023-03-13T01:49:23;99625.74;;;13.76;41.21
73936;BME280;62287;50.858;0.252;2023-03-13T01:49:54;99628.85;;;13.72;41.31
73936;BME280;62287;50.858;0.252;2023-03-13T01:50:25;99635.56;;;13.77;41.28
73936;BME280;62287;50.858;0.252;2023-03-13T01:50:59;99630.46;;;13.92;41.15
73936;BME280;62287;50.858;0.252;2023-03-13T01:51:33;99630.10;;;13.73;41.28
73936;BME280;62287;50.858;0.252;2023-03-13T01:52:07;99623.57;;;13.68;41.31
73936;BME280;62287;50.858;0.252;2023-03-13T01:52:40;99625.78;;;13.93;41.18
73936;BME280;62287;50.858;0.252;2023-03-13T01:53:11;99618.49;;;13.81;41.25
73936;BME280;62287;50.858;0.252;2023-03-13T01:53:44;99624.01;;;13.68;41.39
73936;BME280;62287;50.858;0.252;2023-03-13T01:54:20;99621.35;;;13.80;41.41
73936;BME280;62287;50.858;0.252;2023-03-13T01:54:56;99616.11;;;13.69;41.44
73936;BME280;62287;50.858;0.252;2023-03-13T01:55:31;99617.90;;;13.89;41.36
73936;BME280;62287;50.858;0.252;2023-03-13T01:56:06;99627.11;;;13.75;41.36
73936;BME280;62287;50.858;0.252;2023-03-13T01:56:41;99622.37;;;14.34;41.16
73936;BME280;62287;50.858;0.252;2023-03-13T01:57:16;99615.32;;;14.00;41.16
73936;BME280;62287;50.858;0.252;2023-03-13T01:57:52;99611.79;;;13.85;41.34
73936;BME280;62287;50.858;0.252;2023-03-13T01:58:24;99612.07;;;13.92;41.33
73936;BME280;62287;50.858;0.252;2023-03-13T01:58:57;99614.67;;;13.93;41.31
73936;BME280;62287;50.858;0.252;2023-03-13T01:59:32;99603.78;;;14.28;41.24
73936;BME280;62287;50.858;0.252;2023-03-13T02:00:07;99606.33;;;14.09;41.25
73936;BME280;62287;50.858;0.252;2023-03-13T02:00:39;99608.08;;;13.81;41.24
73936;BME280;62287;50.858;0.252;2023-03-13T02:01:12;99607.91;;;13.77;41.25
73936;BME280;62287;50.858;0.252;2023-03-13T02:01:45;99604.59;;;13.84;41.23
73936;BME280;62287;50.858;0.252;2023-03-13T02:02:17;99595.78;;;14.04;40.99
73936;BME280;62287;50.858;0.252;2023-03-13T02:02:50;99595.59;;;13.56;41.08
73936;BME280;62287;50.858;0.252;2023-03-13T02:03:23;99599.58;;;13.78;41.23
73936;BME280;62287;50.858;0.252;2023-03-13T02:03:56;99589.65;;;13.63;41.38
73936;BME280;62287;50.858;0.252;2023-03-13T02:04:30;99587.15;;;13.53;41.44
73936;BME280;62287;50.858;0.252;2023-03-13T02:05:05;99588.31;;;13.56;41.41
73936;BME280;62287;50.858;0.252;2023-03-13T02:05:36;99580.25;;;13.91;41.42
73936;BME280;62287;50.858;0.252;2023-03-13T02:06:08;99593.66;;;13.58;41.37
73936;BME280;62287;50.858;0.252;2023-03-13T02:06:42;99581.53;;;13.58;41.37
73936;BME280;62287;50.858;0.252;2023-03-13T02:07:17;99575.97;;;13.64;41.38
73936;BME280;62287;50.858;0.252;2023-03-13T02:07:53;99574.51;;;13.83;41.14
73936;BME280;62287;50.858;0.252;2023-03-13T02:08:31;99591.31;;;13.66;41.29
73936;BME280;62287;50.858;0.252;2023-03-13T02:09:08;99581.74;;;13.66;41.34
73936;BME280;62287;50.858;0.252;2023-03-13T02:09:42;99603.01;;;13.64;41.37
73936;BME280;62287;50.858;0.252;2023-03-13T02:10:14;99593.30;;;13.69;41.30
73936;BME280;62287;50.858;0.252;2023-03-13T02:10:50;99599.62;;;13.59;41.31
73936;BME280;62287;50.858;0.252;2023-03-13T02:11:27;99600.24;;;13.64;41.25
73936;BME280;62287;50.858;0.252;2023-03-13T02:12:02;99615.00;;;13.87;41.17
73936;BME280;62287;50.858;0.252;2023-03-13T02:12:36;99592.26;;;13.87;41.07
73936;BME280;62287;50.858;0.252;2023-03-13T02:13:07;99608.26;;;13.94;40.99
73936;BME280;62287;50.858;0.252;2023-03-13T02:13:38;99598.79;;;13.77;41.11
73936;BME280;62287;50.858;0.252;2023-03-13T02:14:09;99601.06;;;13.93;41.01
73936;BME280;62287;50.858;0.252;2023-03-13T02:14:42;99597.30;;;14.00;40.91
73936;BME280;62287;50.858;0.252;2023-03-13T02:15:16;99593.70;;;14.11;40.81
73936;BME280;62287;50.858;0.252;2023-03-13T02:15:47;99592.52;;;13.95;40.94
73936;BME280;62287;50.858;0.252;2023-03-13T02:16:20;99602.38;;;13.85;41.08
73936;BME280;62287;50.858;0.252;2023-03-13T02:16:52;99587.00;;;14.25;41.04
73936;BME280;62287;50.858;0.252;2023-03-13T02:17:23;99596.18;;;13.78;41.22
73936;BME280;62287;50.858;0.252;2023-03-13T02:17:55;99594.42;;;13.79;41.12
73936;BME280;62287;50.858;0.252;2023-03-13T02:18:27;99613.69;;;13.96;41.21
73936;BME280;62287;50.858;0.252;2023-03-13T02:18:58;99591.01;;;14.14;41.17
73936;BME280;62287;50.858;0.252;2023-03-13T02:19:41;99594.74;;;13.82;41.15
73936;BME280;62287;50.858;0.252;2023-03-13T02:20:15;99591.19;;;13.55;41.05
73936;BME280;62287;50.858;0.252;2023-03-13T02:20:47;99591.88;;;14.11;41.20
73936;BME280;62287;50.858;0.252;2023-03-13T02:21:34;99576.01;;;13.88;41.08
73936;BME280;62287;50.858;0.252;2023-03-13T02:22:15;99578.15;;;13.65;41.25
73936;BME280;62287;50.858;0.252;2023-03-13T02:22:55;99577.93;;;14.15;41.13
73936;BME280;62287;50.858;0.252;2023-03-13T02:23:32;99561.05;;;13.74;41.18
73936;BME280;62287;50.858;0.252;2023-03-13T02:24:12;99568.70;;;13.66;41.22
73936;BME280;62287;50.858;0.252;2023-03-13T02:24:51;99559.52;;;13.62;41.31
73936;BME280;62287;50.858;0.252;2023-03-13T02:25:33;99568.10;;;13.64;41.25
73936;BME280;62287;50.858;0.252;2023-03-13T02:26:05;99567.31;;;13.78;41.18
73936;BME280;62287;50.858;0.252;2023-03-13T02:26:36;99566.97;;;14.52;41.09
73936;BME280;62287;50.858;0.252;2023-03-13T02:27:07;99557.07;;;13.73;41.25
73936;BME280;62287;50.858;0.252;2023-03-13T02:27:38;99568.95;;;13.59;41.41
73936;BME280;62287;50.858;0.252;2023-03-13T02:28:12;99561.81;;;13.69;41.34
73936;BME280;62287;50.858;0.252;2023-03-13T02:28:44;99561.19;;;13.80;41.16
73936;BME280;62287;50.858;0.252;2023-03-13T02:29:15;99555.31;;;14.47;41.25
73936;BME280;62287;50.858;0.252;2023-03-13T02:29:46;99552.82;;;13.64;41.28
73936;BME280;62287;50.858;0.252;2023-03-13T02:30:18;99550.79;;;13.60;41.32
73936;BME280;62287;50.858;0.252;2023-03-13T02:30:50;99544.62;;;14.30;41.34
73936;BME280;62287;50.858;0.252;2023-03-13T02:31:23;99552.65;;;13.67;41.34
73936;BME280;62287;50.858;0.252;2023-03-13T02:31:54;99539.71;;;13.63;41.33
73936;BME280;62287;50.858;0.252;2023-03-13T02:32:26;99549.21;;;13.52;41.26
73936;BME280;62287;50.858;0.252;2023-03-13T02:32:59;99541.87;;;13.53;41.37
73936;BME280;62287;50.858;0.252;2023-03-13T02:33:34;99550.00;;;13.59;41.38
73936;BME280;62287;50.858;0.252;2023-03-13T02:34:06;99538.34;;;14.27;41.38
73936;BME280;62287;50.858;0.252;2023-03-13T02:34:39;99534.80;;;13.75;41.16
73936;BME280;62287;50.858;0.252;2023-03-13T02:35:13;99525.90;;;13.64;41.39
73936;BME280;62287;50.858;0.252;2023-03-13T02:35:45;99520.72;;;13.68;41.34
73936;BME280;62287;50.858;0.252;2023-03-13T02:36:17;99531.48;;;14.33;41.27
73936;BME280;62287;50.858;0.252;2023-03-13T02:36:49;99527.99;;;13.61;41.27
73936;BME280;62287;50.858;0.252;2023-03-13T02:37:20;99522.75;;;13.79;41.11
73936;BME280;62287;50.858;0.252;2023-03-13T02:37:54;99528.59;;;14.07;41.12
73936;BME280;62287;50.858;0.252;2023-03-13T02:38:28;99523.68;;;13.61;41.20
73936;BME280;62287;50.858;0.252;2023-03-13T02:39:03;99526.13;;;14.03;41.14
73936;BME280;62287;50.858;0.252;2023-03-13T02:39:36;99523.06;;;13.50;41.26
73936;BME280;62287;50.858;0.252;2023-03-13T02:40:11;99524.27;;;13.84;41.34
73936;BME280;62287;50.858;0.252;2023-03-13T02:40:47;99526.13;;;14.16;41.16
73936;BME280;62287;50.858;0.252;2023-03-13T02:41:20;99529.68;;;13.72;41.11
73936;BME280;62287;50.858;0.252;2023-03-13T02:41:53;99522.10;;;13.87;41.11
73936;BME280;62287;50.858;0.252;2023-03-13T02:42:24;99518.02;;;13.63;41.20
73936;BME280;62287;50.858;0.252;2023-03-13T02:43:00;99523.62;;;13.70;41.14
73936;BME280;62287;50.858;0.252;2023-03-13T02:43:32;99520.31;;;14.02;41.17
73936;BME280;62287;50.858;0.252;2023-03-13T02:44:04;99527.96;;;13.66;41.10
73936;BME280;62287;50.858;0.252;2023-03-13T02:44:37;99522.48;;;13.81;41.00
73936;BME280;62287;50.858;0.252;2023-03-13T02:45:12;99519.41;;;13.84;40.92
73936;BME280;62287;50.858;0.252;2023-03-13T02:46:00;99515.69;;;13.83;41.00
73936;BME280;62287;50.858;0.252;2023-03-13T02:46:31;99517.81;;;14.29;40.96
73936;BME280;62287;50.858;0.252;2023-03-13T02:47:17;99516.91;;;13.72;41.26
73936;BME280;62287;50.858;0.252;2023-03-13T02:47:48;99516.34;;;13.82;40.99
73936;BME280;62287;50.858;0.252;2023-03-13T02:48:30;99519.90;;;13.94;40.92
73936;BME280;62287;50.858;0.252;2023-03-13T02:49:18;99513.48;;;14.06;41.02
73936;BME280;62287;50.858;0.252;2023-03-13T02:49:50;99512.49;;;13.89;41.20
73936;BME280;62287;50.858;0.252;2023-03-13T02:50:21;99514.62;;;13.51;41.27
73936;BME280;62287;50.858;0.252;2023-03-13T02:50:52;99503.99;;;14.04;41.20
73936;BME280;62287;50.858;0.252;2023-03-13T02:51:27;99515.65;;;13.95;41.22
73936;BME280;62287;50.858;0.252;2023-03-13T02:52:07;99513.51;;;14.42;41.05
73936;BME280;62287;50.858;0.252;2023-03-13T02:52:41;99511.23;;;13.68;41.09